Time;durP1;ratioP1;P1;durP2;ratioP2;P2;SDS_P1;SDS_P2;PMS_P1;PMS_P2;Temp;Humidity;BMP_temperature;BMP_pressure;BME280_temperature;BME280_humidity;BME280_pressure;Samples;Min_cycle;Max_cycle;Signal;HPM_P1;HPM_P2
2023/01/11 00:00:01;;;;;;;3.28;2.78;;;;;;;8.21;100.00;100555.19;5068144;28;20044;-65
2023/01/11 00:02:26;;;;;;;5.82;2.50;;;;;;;8.23;100.00;100561.31;5067531;28;20032;-65
2023/01/11 00:04:52;;;;;;;3.10;2.20;;;;;;;8.24;100.00;100565.63;5068438;28;20557;-65
2023/01/11 00:07:17;;;;;;;3.20;1.92;;;;;;;8.28;100.00;100561.47;5068166;28;20029;-65
2023/01/11 00:09:43;;;;;;;2.38;1.67;;;;;;;8.28;100.00;100558.88;5068215;28;20111;-65
2023/01/11 00:12:11;;;;;;;4.55;2.15;;;;;;;8.35;100.00;100568.63;5067349;28;20032;-65
2023/01/11 00:14:36;;;;;;;2.28;1.55;;;;;;;8.41;100.00;100566.28;5067945;28;20029;-65
2023/01/11 00:17:01;;;;;;;4.97;2.03;;;;;;;8.43;100.00;100557.69;5066479;28;20594;-65
2023/01/11 00:19:26;;;;;;;4.47;2.40;;;;;;;8.46;100.00;100555.22;5067392;28;20028;-65
2023/01/11 00:21:52;;;;;;;3.22;1.77;;;;;;;8.47;100.00;100554.41;5067709;28;21090;-65
2023/01/11 00:24:17;;;;;;;2.35;1.75;;;;;;;8.49;100.00;100547.59;5067973;28;20070;-65
2023/01/11 00:26:42;;;;;;;5.15;1.70;;;;;;;8.55;100.00;100545.22;5066791;28;20044;-65
2023/01/11 00:29:07;;;;;;;3.00;1.20;;;;;;;8.61;100.00;100544.59;5067357;28;20720;-65
2023/01/11 00:31:33;;;;;;;2.95;1.55;;;;;;;8.64;100.00;100550.75;5067280;28;20024;-65
2023/01/11 00:33:59;;;;;;;2.90;1.30;;;;;;;8.65;100.00;100537.00;5067409;28;20083;-65
2023/01/11 00:36:24;;;;;;;2.83;1.20;;;;;;;8.66;100.00;100532.72;5066914;28;20035;-65
2023/01/11 00:38:55;;;;;;;1.40;1.27;;;;;;;8.69;100.00;100547.47;5067406;28;20083;-65
2023/01/11 00:49:36;;;;;;;3.53;1.42;;;;;;;8.67;100.00;100531.88;5066672;28;20136;-65
2023/01/11 00:52:07;;;;;;;3.40;1.00;;;;;;;8.64;100.00;100529.19;5067296;28;20020;-65
2023/01/11 00:54:33;;;;;;;1.60;1.23;;;;;;;8.61;100.00;100522.22;5067561;28;20624;-65
2023/01/11 00:56:58;;;;;;;3.22;1.55;;;;;;;8.62;100.00;100523.97;5067355;28;20020;-65
2023/01/11 00:59:23;;;;;;;2.03;1.20;;;;;;;8.58;100.00;100521.25;5067040;28;20034;-65
2023/01/11 01:01:48;;;;;;;2.90;1.25;;;;;;;8.58;100.00;100516.94;5066357;28;20016;-65
2023/01/11 01:04:14;;;;;;;4.93;1.77;;;;;;;8.55;100.00;100519.38;5066271;28;20021;-65
2023/01/11 01:06:39;;;;;;;2.63;1.40;;;;;;;8.53;100.00;100518.44;5067268;28;20387;-65
2023/01/11 01:09:04;;;;;;;2.75;1.77;;;;;;;8.52;100.00;100514.13;5067143;28;20024;-65
2023/01/11 01:11:29;;;;;;;2.75;1.98;;;;;;;8.52;100.00;100509.84;5066957;28;20540;-66
2023/01/11 01:16:41;;;;;;;2.38;1.85;;;;;;;8.50;100.00;100524.41;5067305;28;20435;-65
2023/01/11 01:19:06;;;;;;;4.53;2.10;;;;;;;8.49;100.00;100524.34;5067051;28;20083;-65
2023/01/11 01:21:32;;;;;;;2.25;1.85;;;;;;;8.47;100.00;100532.03;5067356;28;20028;-65
2023/01/11 01:23:57;;;;;;;2.55;2.17;;;;;;;8.49;100.00;100539.84;5066866;28;20365;-65
2023/01/11 01:26:22;;;;;;;3.60;2.30;;;;;;;8.53;100.00;100523.63;5066658;28;20060;-65
2023/01/11 01:28:49;;;;;;;2.60;2.40;;;;;;;8.54;100.00;100527.97;5070243;28;20048;-65
2023/01/11 01:31:15;;;;;;;2.65;2.08;;;;;;;8.57;100.00;100527.22;5071157;28;20361;-65
2023/01/11 01:33:40;;;;;;;5.28;2.38;;;;;;;8.58;100.00;100532.44;5071026;28;20023;-65
2023/01/11 01:36:05;;;;;;;3.17;2.75;;;;;;;8.60;100.00;100523.03;5070709;28;20027;-65
2023/01/11 01:38:31;;;;;;;3.50;2.20;;;;;;;8.61;100.00;100522.22;5071087;28;20112;-65
2023/01/11 01:40:56;;;;;;;5.03;2.80;;;;;;;8.63;100.00;100530.88;5071403;28;20048;-65
2023/01/11 01:43:42;;;;;;;2.53;2.33;;;;;;;8.65;100.00;100521.50;5071289;28;20029;-65
2023/01/11 01:46:08;;;;;;;3.83;2.80;;;;;;;8.65;100.00;100523.22;5071152;28;20039;-65
2023/01/11 01:48:35;;;;;;;3.38;2.80;;;;;;;8.68;100.00;100520.72;5070489;28;20380;-65
2023/01/11 01:51:02;;;;;;;3.85;2.85;;;;;;;8.71;100.00;100525.13;5071061;28;20043;-65
2023/01/11 01:53:36;;;;;;;5.50;2.80;;;;;;;8.74;100.00;100520.94;5071089;28;20388;-64
2023/01/11 01:56:06;;;;;;;4.10;3.05;;;;;;;8.78;100.00;100521.91;5071076;28;20085;-65
2023/01/11 01:58:38;;;;;;;3.58;2.97;;;;;;;8.78;100.00;100511.59;5070574;28;20056;-65
2023/01/11 02:03:51;;;;;;;5.72;2.63;;;;;;;8.87;100.00;100521.34;5071162;28;20357;-65
2023/01/11 02:06:17;;;;;;;3.58;2.80;;;;;;;8.89;100.00;100520.59;5070797;28;20024;-65
2023/01/11 02:08:48;;;;;;;3.75;2.28;;;;;;;8.97;100.00;100522.56;5070739;28;20036;-65
2023/01/11 02:11:29;;;;;;;5.00;3.10;;;;;;;8.97;100.00;100517.38;5070926;28;20029;-65
2023/01/11 02:13:58;;;;;;;4.88;2.67;;;;;;;9.02;100.00;100515.81;5069710;28;20025;-65
2023/01/11 02:16:23;;;;;;;4.20;2.30;;;;;;;9.03;100.00;100516.72;5070630;28;20032;-65
2023/01/11 02:18:49;;;;;;;6.32;2.70;;;;;;;9.09;100.00;100512.63;5070180;28;20110;-65
2023/01/11 02:21:36;;;;;;;5.03;2.60;;;;;;;9.07;100.00;100511.69;5070533;28;20025;-65
2023/01/11 02:24:20;;;;;;;2.53;2.00;;;;;;;9.11;100.00;100517.84;5070565;28;20035;-65
2023/01/11 02:26:59;;;;;;;2.28;2.08;;;;;;;9.11;100.00;100515.25;5070483;28;20484;-65
2023/01/11 02:29:35;;;;;;;2.80;2.05;;;;;;;9.12;100.00;100517.03;5070543;28;20094;-65
2023/01/11 02:32:27;;;;;;;3.50;2.08;;;;;;;9.14;100.00;100515.34;5069626;28;20056;-64
2023/01/11 02:35:03;;;;;;;3.75;1.83;;;;;;;9.16;100.00;100516.28;5070303;28;20020;-65
2023/01/11 02:37:37;;;;;;;3.78;1.65;;;;;;;9.20;100.00;100501.75;5070304;28;20532;-65
2023/01/11 02:40:26;;;;;;;2.63;1.60;;;;;;;9.24;100.00;100501.03;5069141;28;20473;-65
2023/01/11 02:46:08;;;;;;;1.92;1.75;;;;;;;9.27;100.00;100498.53;5070361;28;20167;-65
2023/01/11 02:48:46;;;;;;;4.03;1.63;;;;;;;9.28;100.00;100494.25;5069597;28;20075;-65
2023/01/11 02:51:18;;;;;;;1.25;1.15;;;;;;;9.28;100.00;100496.84;5069998;28;20477;-65
2023/01/11 02:53:49;;;;;;;2.40;1.55;;;;;;;9.31;100.00;100497.81;5069959;28;20055;-65
2023/01/11 02:56:42;;;;;;;1.50;1.30;;;;;;;9.33;100.00;100490.97;5069895;28;20373;-65
2023/01/11 02:59:15;;;;;;;1.42;1.33;;;;;;;9.34;100.00;100497.00;5069957;28;20028;-65
2023/01/11 03:01:59;;;;;;;2.47;1.40;;;;;;;9.35;100.00;100494.47;5069181;28;20016;-65
2023/01/11 03:04:24;;;;;;;4.93;1.40;;;;;;;9.34;100.00;100491.84;5069826;28;20033;-65
2023/01/11 03:06:58;;;;;;;3.30;2.25;;;;;;;9.36;100.00;100485.91;5069676;28;20024;-65
2023/01/11 03:09:29;;;;;;;3.45;1.50;;;;;;;9.37;100.00;100492.81;5069782;28;20186;-65
2023/01/11 03:15:15;;;;;;;3.05;1.30;;;;;;;9.44;100.00;100473.22;5069596;28;20147;-65
2023/01/11 03:17:57;;;;;;;3.88;1.30;;;;;;;9.42;100.00;100477.47;5069178;28;20400;-65
2023/01/11 03:20:32;;;;;;;1.30;1.05;;;;;;;9.45;100.00;100484.41;5067979;28;20085;-65
2023/01/11 03:23:11;;;;;;;1.60;1.20;;;;;;;9.47;100.00;100482.75;5069444;28;20132;-65
2023/01/11 03:25:56;;;;;;;1.77;1.13;;;;;;;9.48;100.00;100485.38;5069173;28;20021;-65
2023/01/11 03:28:39;;;;;;;1.77;1.65;;;;;;;9.47;100.00;100482.75;5068740;28;20098;-65
2023/01/11 03:31:16;;;;;;;1.70;1.20;;;;;;;9.47;100.00;100487.94;5069090;28;20476;-65
2023/01/11 03:34:00;;;;;;;1.30;1.10;;;;;;;9.50;100.00;100477.66;5069191;28;20028;-65
2023/01/11 03:36:35;;;;;;;1.13;0.90;;;;;;;9.49;100.00;100487.16;5069290;28;20063;-65
2023/01/11 03:39:30;;;;;;;2.13;1.10;;;;;;;9.49;100.00;100491.44;5069040;28;20909;-65
2023/01/11 03:42:00;;;;;;;1.52;1.20;;;;;;;9.52;100.00;100480.31;5069350;28;20021;-65
2023/01/11 03:44:30;;;;;;;1.58;1.48;;;;;;;9.53;100.00;100498.47;5069061;28;20054;-65
2023/01/11 03:47:03;;;;;;;1.30;1.20;;;;;;;9.55;100.00;100485.59;5068924;28;20332;-65
2023/01/11 03:49:37;;;;;;;2.40;1.27;;;;;;;9.53;100.00;100480.38;5068709;28;20048;-65
2023/01/11 03:52:06;;;;;;;1.58;1.30;;;;;;;9.55;100.00;100481.28;5067803;28;20679;-65
2023/01/11 03:54:32;;;;;;;1.60;1.25;;;;;;;9.55;100.00;100477.84;5068196;28;20102;-65
2023/01/11 03:57:13;;;;;;;1.67;1.30;;;;;;;9.56;100.00;100472.69;5068428;28;20021;-65
2023/01/11 03:59:39;;;;;;;2.00;1.25;;;;;;;9.55;100.00;100481.28;5067920;28;20130;-65
2023/01/11 04:02:19;;;;;;;1.40;1.30;;;;;;;9.55;100.00;100483.00;5067948;28;20016;-65
2023/01/11 04:04:45;;;;;;;1.48;1.15;;;;;;;9.56;100.00;100483.06;5068065;28;20020;-65
2023/01/11 04:07:11;;;;;;;1.40;1.05;;;;;;;9.58;100.00;100486.56;5067553;28;20127;-65
2023/01/11 04:09:36;;;;;;;1.73;1.38;;;;;;;9.59;100.00;100488.31;5067573;28;20024;-65
2023/01/11 04:12:01;;;;;;;1.60;1.50;;;;;;;9.60;100.00;100484.91;5067473;28;20032;-65
2023/01/11 04:14:27;;;;;;;1.80;1.58;;;;;;;9.63;100.00;100488.41;5067669;28;20055;-65
2023/01/11 04:16:52;;;;;;;1.88;1.77;;;;;;;9.66;100.00;100496.28;5068264;28;20047;-65
2023/01/11 04:19:17;;;;;;;3.50;2.00;;;;;;;9.70;100.00;100495.50;5068276;28;20107;-65
2023/01/11 04:21:43;;;;;;;2.13;2.00;;;;;;;9.69;100.00;100498.94;5067787;28;20021;-66
2023/01/11 04:24:08;;;;;;;3.05;1.90;;;;;;;9.71;100.00;100495.56;5068042;28;20032;-65
2023/01/11 04:26:33;;;;;;;2.22;2.03;;;;;;;9.71;100.00;100502.47;5068048;28;20025;-65
2023/01/11 04:28:58;;;;;;;2.95;2.05;;;;;;;9.72;100.00;100501.63;5067027;28;20099;-65
2023/01/11 04:31:24;;;;;;;3.45;2.63;;;;;;;9.75;100.00;100500.84;5067562;28;20120;-65
2023/01/11 04:33:49;;;;;;;3.88;2.22;;;;;;;9.74;100.00;100507.72;5068181;28;20070;-65
2023/01/11 04:36:14;;;;;;;3.00;2.47;;;;;;;9.76;100.00;100511.22;5067755;28;20020;-65
2023/01/11 04:38:40;;;;;;;2.85;2.65;;;;;;;9.82;100.00;100507.97;5068177;28;20025;-65
2023/01/11 04:43:49;;;;;;;2.70;2.50;;;;;;;9.80;100.00;100522.56;5068021;28;20086;-65
2023/01/11 04:46:14;;;;;;;2.97;2.58;;;;;;;9.77;100.00;100520.75;5067862;28;20028;-66
2023/01/11 04:48:40;;;;;;;4.28;3.25;;;;;;;9.81;100.00;100524.31;5067980;28;20027;-65
2023/01/11 04:51:06;;;;;;;3.08;2.88;;;;;;;9.80;100.00;100527.72;5067741;28;20051;-65
2023/01/11 04:53:32;;;;;;;5.30;3.15;;;;;;;9.77;100.00;100528.50;5067335;28;20086;-65
2023/01/11 04:56:04;;;;;;;4.30;3.28;;;;;;;9.76;100.00;100531.94;5067701;28;20032;-65
2023/01/11 04:58:31;;;;;;;5.10;2.88;;;;;;;9.76;100.00;100531.94;5067651;28;20074;-65
2023/01/11 05:00:56;;;;;;;3.20;3.00;;;;;;;9.76;100.00;100531.94;5067538;28;20017;-65
2023/01/11 05:03:22;;;;;;;2.88;2.40;;;;;;;9.77;100.00;100532.81;5067899;28;20047;-64
2023/01/11 05:05:57;;;;;;;1.83;1.73;;;;;;;9.82;100.00;100532.09;5068226;28;20100;-66
2023/01/11 05:08:27;;;;;;;4.57;2.20;;;;;;;9.80;100.00;100520.84;5067796;28;20028;-65
2023/01/11 05:10:54;;;;;;;2.45;2.25;;;;;;;9.82;100.00;100526.94;5066036;28;20024;-66
2023/01/11 05:13:19;;;;;;;2.22;2.13;;;;;;;9.83;100.00;100530.41;5067966;28;20066;-66
2023/01/11 05:15:44;;;;;;;2.13;2.00;;;;;;;9.83;100.00;100528.72;5068007;28;20048;-65
2023/01/11 05:18:10;;;;;;;1.80;1.70;;;;;;;9.83;100.00;100533.88;5067151;28;20024;-65
2023/01/11 05:20:35;;;;;;;2.22;2.03;;;;;;;9.82;100.00;100534.69;5067120;28;20091;-65
2023/01/11 05:23:00;;;;;;;1.80;1.70;;;;;;;9.84;100.00;100535.63;5067413;28;20028;-66
2023/01/11 05:25:25;;;;;;;2.25;1.65;;;;;;;9.83;100.00;100539.06;5067587;28;20525;-65
2023/01/11 05:27:51;;;;;;;2.20;1.60;;;;;;;9.81;100.00;100548.47;5067597;28;20017;-66
2023/01/11 05:30:16;;;;;;;2.40;2.20;;;;;;;9.81;100.00;100550.19;5067128;28;20024;-65
2023/01/11 05:32:41;;;;;;;2.20;2.00;;;;;;;9.80;100.00;100551.03;5065727;28;20196;-65
2023/01/11 05:35:09;;;;;;;3.33;3.03;;;;;;;9.78;100.00;100550.97;5067401;28;20029;-66
2023/01/11 05:37:35;;;;;;;3.83;3.50;;;;;;;9.77;100.00;100549.22;5067347;28;20549;-65
2023/01/11 05:40:00;;;;;;;6.28;4.43;;;;;;;9.77;100.00;100549.22;5067880;28;20077;-65
2023/01/11 05:42:26;;;;;;;6.18;5.22;;;;;;;9.76;100.00;100544.88;5066948;28;20103;-66
2023/01/11 05:47:35;;;;;;;9.02;5.55;;;;;;;9.73;100.00;100553.41;5067109;28;20121;-66
2023/01/11 05:50:00;;;;;;;9.63;7.18;;;;;;;9.72;100.00;100551.66;5067283;28;20090;-65
2023/01/11 05:52:25;;;;;;;7.30;6.55;;;;;;;9.71;100.00;100559.38;5066688;28;20029;-65
2023/01/11 05:54:51;;;;;;;7.85;7.05;;;;;;;9.71;100.00;100564.56;5067544;28;20400;-65
2023/01/11 05:57:16;;;;;;;8.63;7.43;;;;;;;9.69;100.00;100561.03;5067248;28;20052;-65
2023/01/11 05:59:41;;;;;;;8.15;7.32;;;;;;;9.69;100.00;100568.81;5067625;28;20107;-65
2023/01/11 06:02:06;;;;;;;8.75;7.55;;;;;;;9.69;100.00;100561.94;5066624;28;20024;-65
2023/01/11 06:04:32;;;;;;;8.73;7.68;;;;;;;9.68;100.00;100564.44;5066962;28;20145;-65
2023/01/11 06:06:57;;;;;;;9.73;4.85;;;;;;;9.66;100.00;100573.88;5067238;28;20024;-65
2023/01/11 06:09:22;;;;;;;7.82;3.60;;;;;;;9.57;100.00;100577.91;5065974;28;20044;-65
2023/01/11 06:11:49;;;;;;;12.60;4.07;;;;;;;9.51;100.00;100593.25;5067114;28;20103;-66
2023/01/11 06:14:14;;;;;;;12.13;4.70;;;;;;;9.46;100.00;100580.16;5067617;28;20025;-65
2023/01/11 06:16:40;;;;;;;12.35;4.50;;;;;;;9.42;100.00;100592.94;5070384;28;20078;-65
2023/01/11 06:19:05;;;;;;;13.52;4.10;;;;;;;9.40;100.00;100592.91;5070618;28;20063;-66
2023/01/11 06:21:30;;;;;;;12.90;4.47;;;;;;;9.36;100.00;100602.28;5070478;28;20032;-65
2023/01/11 06:23:55;;;;;;;15.18;4.07;;;;;;;9.35;100.00;100603.09;5070217;28;20029;-65
2023/01/11 06:26:21;;;;;;;7.78;3.17;;;;;;;9.32;100.00;100607.28;5069978;28;20032;-65
2023/01/11 06:28:47;;;;;;;16.77;3.42;;;;;;;9.29;100.00;100610.66;5069872;28;20412;-65
2023/01/11 06:31:13;;;;;;;14.57;3.72;;;;;;;9.27;100.00;100614.00;5069633;28;20032;-65
2023/01/11 06:33:39;;;;;;;9.50;2.70;;;;;;;9.24;100.00;100604.44;5069241;28;20029;-65
2023/01/11 06:36:06;;;;;;;15.70;3.72;;;;;;;9.21;100.00;100614.69;5069806;28;20034;-66
2023/01/11 06:38:32;;;;;;;13.90;3.10;;;;;;;9.19;100.00;100631.84;5069899;28;20028;-65
2023/01/11 06:41:00;;;;;;;10.10;3.03;;;;;;;9.17;100.00;100628.34;5069132;28;20039;-65
2023/01/11 06:43:27;;;;;;;11.02;2.72;;;;;;;9.12;100.00;100652.31;5069991;28;20020;-65
2023/01/11 06:45:52;;;;;;;17.13;3.65;;;;;;;9.10;100.00;100647.94;5069229;28;20085;-66
2023/01/11 06:48:19;;;;;;;15.13;4.28;;;;;;;9.08;100.00;100641.81;5069138;28;20032;-65
2023/01/11 06:50:49;;;;;;;15.68;3.70;;;;;;;9.07;100.00;100635.75;5069175;28;20488;-66
2023/01/11 06:53:15;;;;;;;15.23;2.85;;;;;;;9.06;100.00;100657.28;5069097;28;20531;-65
2023/01/11 06:55:41;;;;;;;15.50;3.22;;;;;;;9.06;100.00;100665.03;5068939;28;20036;-65
2023/01/11 06:58:06;;;;;;;13.43;3.47;;;;;;;9.04;100.00;100673.56;5069504;28;20396;-65
2023/01/11 07:00:32;;;;;;;17.52;3.42;;;;;;;9.01;100.00;100677.78;5068899;28;20016;-65
2023/01/11 07:03:02;;;;;;;16.73;3.95;;;;;;;9.00;100.00;100668.28;5069215;28;20107;-65
2023/01/11 07:05:27;;;;;;;15.23;3.05;;;;;;;8.98;100.00;100675.09;5069582;28;20551;-65
2023/01/11 07:07:52;;;;;;;14.20;3.13;;;;;;;8.97;100.00;100669.88;5068736;28;20424;-65
2023/01/11 07:10:18;;;;;;;15.32;3.80;;;;;;;8.94;100.00;100667.19;5068835;28;20020;-65
2023/01/11 07:12:43;;;;;;;13.57;3.72;;;;;;;8.94;100.00;100662.88;5068950;28;20491;-66
2023/01/11 07:15:09;;;;;;;17.67;3.25;;;;;;;8.93;100.00;100681.81;5069046;28;20046;-65
2023/01/11 07:17:35;;;;;;;15.25;3.67;;;;;;;8.92;100.00;100689.50;5068485;28;20477;-66
2023/01/11 07:20:01;;;;;;;16.35;4.10;;;;;;;8.89;100.00;100695.44;5068353;28;20032;-65
2023/01/11 07:22:27;;;;;;;14.27;3.03;;;;;;;8.87;100.00;100708.28;5068842;28;20035;-65
2023/01/11 07:24:52;;;;;;;16.48;3.40;;;;;;;8.86;100.00;100711.72;5068465;28;20035;-65
2023/01/11 07:27:20;;;;;;;19.08;3.75;;;;;;;8.84;100.00;100715.94;5068635;28;20388;-65
2023/01/11 07:29:46;;;;;;;13.18;3.33;;;;;;;8.82;100.00;100716.69;5068204;28;20059;-65
2023/01/11 07:32:12;;;;;;;16.17;3.13;;;;;;;8.80;100.00;100720.91;5068485;28;20064;-65
2023/01/11 07:34:37;;;;;;;14.13;3.70;;;;;;;8.78;100.00;100713.13;5068368;28;20076;-65
2023/01/11 07:37:03;;;;;;;15.45;3.70;;;;;;;8.76;100.00;100717.38;5068506;28;20073;-65
2023/01/11 07:39:29;;;;;;;23.63;4.97;;;;;;;8.74;100.00;100717.28;5068442;28;20469;-65
2023/01/11 07:44:38;;;;;;;19.45;3.97;;;;;;;8.69;100.00;100733.47;5068472;28;20081;-65
2023/01/11 07:47:03;;;;;;;16.00;3.30;;;;;;;8.68;100.00;100739.44;5067419;28;20024;-65
2023/01/11 07:49:28;;;;;;;18.08;3.78;;;;;;;8.64;100.00;100741.91;5066427;28;20398;-66
2023/01/11 07:51:54;;;;;;;19.05;3.42;;;;;;;8.61;100.00;100746.97;5066173;28;20052;-65
2023/01/11 07:54:19;;;;;;;19.92;4.60;;;;;;;8.58;100.00;100758.88;5065867;28;20127;-65
2023/01/11 07:56:44;;;;;;;19.67;4.47;;;;;;;8.56;100.00;100770.84;5065446;28;20448;-65
2023/01/11 07:59:10;;;;;;;23.73;4.03;;;;;;;8.53;100.00;100772.44;5067330;28;20020;-65
2023/01/11 08:01:38;;;;;;;22.10;3.72;;;;;;;8.52;100.00;100783.63;5068038;28;20020;-65
2023/01/11 08:04:03;;;;;;;14.40;3.63;;;;;;;8.51;100.00;100780.94;5068549;28;20070;-65
2023/01/11 08:06:29;;;;;;;23.80;4.53;;;;;;;8.48;100.00;100778.25;5068295;28;20028;-65
2023/01/11 08:08:54;;;;;;;17.38;4.55;;;;;;;8.46;100.00;100783.34;5068264;28;20024;-65
2023/01/11 08:16:47;;;;;;;19.10;4.25;;;;;;;8.39;100.00;100783.94;5068780;28;20043;-65
2023/01/11 08:19:12;;;;;;;17.48;4.03;;;;;;;8.36;100.00;100802.78;5068221;28;20460;-65
2023/01/11 08:21:38;;;;;;;17.20;3.20;;;;;;;8.36;100.00;100809.63;5068034;28;20291;-65
2023/01/11 08:24:03;;;;;;;19.70;3.70;;;;;;;8.34;100.00;100819.03;5068378;28;20389;-65
2023/01/11 08:26:28;;;;;;;19.20;4.97;;;;;;;8.31;100.00;100814.59;5068249;28;20553;-66
2023/01/11 08:28:54;;;;;;;14.98;4.18;;;;;;;8.29;100.00;100836.91;5068127;28;20028;-65
2023/01/11 08:31:20;;;;;;;22.52;3.58;;;;;;;8.27;100.00;100830.81;5068295;28;20030;-65
2023/01/11 08:33:48;;;;;;;20.85;3.30;;;;;;;8.24;100.00;100838.44;5068463;28;20029;-66
2023/01/11 08:36:13;;;;;;;18.15;4.32;;;;;;;8.24;100.00;100843.59;5067661;28;20086;-65
2023/01/11 08:38:39;;;;;;;15.02;3.33;;;;;;;8.21;100.00;100841.75;5067264;28;20028;-65
2023/01/11 08:41:09;;;;;;;15.13;3.28;;;;;;;8.18;100.00;100859.69;5068253;28;20056;-65
2023/01/11 08:43:35;;;;;;;17.85;3.13;;;;;;;8.16;100.00;100857.06;5068141;28;20054;-65
2023/01/11 08:46:00;;;;;;;15.85;3.58;;;;;;;8.14;100.00;100858.69;5068356;28;20054;-66
2023/01/11 08:48:26;;;;;;;16.08;3.72;;;;;;;8.11;100.00;100857.66;5067822;28;20024;-65
2023/01/11 08:50:51;;;;;;;15.05;3.85;;;;;;;8.10;100.00;100867.09;5067263;28;20218;-66
2023/01/11 08:53:16;;;;;;;12.85;3.45;;;;;;;8.11;100.00;100868.00;5067930;28;20145;-65
2023/01/11 08:55:43;;;;;;;12.73;2.83;;;;;;;8.11;100.00;100873.16;5067043;28;20028;-65
2023/01/11 08:58:09;;;;;;;19.58;3.88;;;;;;;8.09;100.00;100883.41;5067655;28;20024;-66
2023/01/11 09:00:34;;;;;;;15.02;4.07;;;;;;;8.08;100.00;100894.53;5067365;28;20020;-66
2023/01/11 09:03:00;;;;;;;16.50;3.00;;;;;;;8.07;100.00;100887.63;5068239;28;20052;-66
2023/01/11 09:05:25;;;;;;;18.08;3.20;;;;;;;8.06;100.00;100898.75;5067970;28;20090;-66
2023/01/11 09:07:53;;;;;;;18.70;3.78;;;;;;;8.05;100.00;100897.91;5067746;28;20558;-66
2023/01/11 09:10:18;;;;;;;11.38;3.28;;;;;;;8.03;100.00;100906.38;5067670;28;20384;-65
2023/01/11 09:12:44;;;;;;;17.75;4.40;;;;;;;8.01;100.00;100898.56;5067155;28;20024;-66
2023/01/11 09:15:09;;;;;;;11.68;2.53;;;;;;;8.00;100.00;100890.75;5067683;28;20487;-66
2023/01/11 09:17:35;;;;;;;17.75;3.10;;;;;;;7.97;100.00;100885.47;5067358;28;20020;-65
2023/01/11 09:20:00;;;;;;;24.90;3.90;;;;;;;7.95;100.00;100892.25;5067464;28;20491;-66
2023/01/11 09:22:26;;;;;;;12.43;3.83;;;;;;;7.92;100.00;100896.47;5067949;28;20016;-66
2023/01/11 09:24:51;;;;;;;12.93;3.03;;;;;;;7.91;100.00;100899.88;5068409;28;20024;-66
2023/01/11 09:27:17;;;;;;;12.32;2.65;;;;;;;7.90;100.00;100899.78;5067512;28;20117;-65
2023/01/11 09:29:43;;;;;;;17.90;3.47;;;;;;;7.86;100.00;100901.34;5067023;28;20036;-66
2023/01/11 09:32:09;;;;;;;10.07;3.40;;;;;;;7.83;100.00;100908.97;5067944;28;20029;-66
2023/01/11 09:34:34;;;;;;;15.73;3.17;;;;;;;7.80;100.00;100909.72;5067629;28;20107;-66
2023/01/11 09:37:02;;;;;;;13.68;2.90;;;;;;;7.79;100.00;100915.69;5067690;28;20024;-65
2023/01/11 09:39:28;;;;;;;16.70;3.38;;;;;;;7.80;100.00;100920.03;5067785;28;20032;-65
2023/01/11 09:42:10;;;;;;;12.00;2.53;;;;;;;7.79;100.00;100932.84;5067091;28;20037;-65
2023/01/11 09:44:44;;;;;;;14.88;3.03;;;;;;;7.79;100.00;100933.75;5067602;28;20039;-66
2023/01/11 09:47:18;;;;;;;14.15;2.95;;;;;;;7.78;100.00;100937.16;5067557;28;20024;-65
2023/01/11 09:49:51;;;;;;;15.23;3.28;;;;;;;7.79;100.00;100927.69;5068993;28;20505;-66
2023/01/11 09:52:28;;;;;;;14.07;2.88;;;;;;;7.79;100.00;100935.44;5071037;28;20033;-65
2023/01/11 09:54:57;;;;;;;13.70;2.67;;;;;;;7.79;100.00;100941.47;5070626;28;20032;-66
2023/01/11 09:57:44;;;;;;;13.73;3.15;;;;;;;7.77;100.00;100944.81;5070922;28;20024;-65
2023/01/11 10:00:34;;;;;;;14.20;3.00;;;;;;;7.76;100.00;100937.88;5070877;28;20497;-65
2023/01/11 10:03:15;;;;;;;11.00;2.40;;;;;;;7.77;100.00;100949.97;5070489;28;20060;-65
2023/01/11 10:06:00;;;;;;;11.10;3.67;;;;;;;7.82;100.00;100943.31;5070941;28;20016;-65
2023/01/11 10:08:40;;;;;;;13.05;2.95;;;;;;;7.91;100.00;100948.00;5070876;28;20031;-65
2023/01/11 10:11:29;;;;;;;20.08;4.65;;;;;;;8.00;100.00;100947.53;5070698;28;20025;-66
2023/01/11 10:14:25;;;;;;;13.55;2.45;;;;;;;8.09;100.00;100947.06;5049773;28;20120;-65
2023/01/11 10:17:19;;;;;;;15.05;3.80;;;;;;;8.18;100.00;100944.88;5070395;28;20016;-66
2023/01/11 10:19:48;;;;;;;13.23;2.80;;;;;;;8.27;100.00;100946.97;5070691;28;20035;-66
2023/01/11 10:22:19;;;;;;;9.88;2.67;;;;;;;8.35;100.00;100949.88;5070870;28;20035;-66
2023/01/11 10:25:15;;;;;;;13.98;2.80;;;;;;;8.41;100.00;100952.75;5070042;28;20033;-65
2023/01/11 10:28:05;;;;;;;8.25;2.45;;;;;;;8.46;100.00;100947.75;5070529;28;20029;-65
2023/01/11 10:33:27;;;;;;;14.98;2.92;;;;;;;8.56;100.00;100949.97;5070521;28;20127;-66
2023/01/11 10:36:13;;;;;;;15.50;3.25;;;;;;;8.59;100.00;100942.34;5069820;28;20081;-66
2023/01/11 10:41:28;;;;;;;12.05;2.63;;;;;;;8.64;100.00;100958.91;5070210;28;20025;-66
2023/01/11 10:44:17;;;;;;;10.80;2.72;;;;;;;8.65;100.00;100960.66;5069581;28;20043;-65
2023/01/11 10:46:48;;;;;;;14.82;2.97;;;;;;;8.66;100.00;100953.81;5070177;28;20029;-65
2023/01/11 10:49:24;;;;;;;12.77;3.58;;;;;;;8.64;100.00;100956.31;5069959;28;20512;-65
2023/01/11 10:51:52;;;;;;;17.60;3.15;;;;;;;8.67;100.00;100957.28;5069676;28;20032;-65
2023/01/11 10:54:30;;;;;;;13.32;4.07;;;;;;;8.68;100.00;100954.75;5070369;28;20380;-65
2023/01/11 10:57:14;;;;;;;16.67;3.80;;;;;;;8.70;100.00;100952.22;5070190;28;20105;-65
2023/01/11 11:00:00;;;;;;;10.00;2.70;;;;;;;8.71;100.00;100959.16;5069710;28;20032;-65
2023/01/11 11:02:45;;;;;;;13.85;3.80;;;;;;;8.75;100.00;100961.06;5070305;28;20059;-66
2023/01/11 11:05:35;;;;;;;14.52;3.65;;;;;;;8.81;100.00;100958.75;5070749;28;20024;-65
2023/01/11 11:08:15;;;;;;;12.10;4.10;;;;;;;8.85;100.00;100952.84;5070058;28;20021;-65
2023/01/11 11:11:04;;;;;;;9.90;2.97;;;;;;;8.92;100.00;100968.63;5069777;28;20031;-65
2023/01/11 11:13:37;;;;;;;14.27;3.90;;;;;;;8.96;100.00;100970.53;5069850;28;20461;-65
2023/01/11 11:16:21;;;;;;;14.60;3.50;;;;;;;8.99;100.00;100965.47;5069843;28;20031;-65
2023/01/11 11:18:51;;;;;;;9.48;2.58;;;;;;;9.01;100.00;100969.88;5069806;28;20028;-65
2023/01/11 11:21:24;;;;;;;15.07;3.03;;;;;;;9.06;100.00;100972.66;5069237;28;20059;-65
2023/01/11 11:24:16;;;;;;;12.57;2.67;;;;;;;9.08;100.00;100973.59;5069466;28;20055;-65
2023/01/11 11:26:47;;;;;;;9.45;2.55;;;;;;;9.07;100.00;100960.59;5064435;28;20166;-65
2023/01/11 11:29:20;;;;;;;12.13;3.10;;;;;;;9.04;100.00;100966.53;5069444;28;20028;-65
2023/01/11 11:31:46;;;;;;;14.07;3.05;;;;;;;9.03;100.00;100967.34;5069555;28;20024;-65
2023/01/11 11:34:20;;;;;;;12.40;3.33;;;;;;;9.08;100.00;100965.84;5069110;28;20051;-65
2023/01/11 11:36:50;;;;;;;12.45;2.85;;;;;;;9.19;100.00;100965.38;5069496;28;20024;-65
2023/01/11 11:39:22;;;;;;;12.18;3.28;;;;;;;9.29;100.00;100970.09;5069168;28;20382;-65
2023/01/11 11:41:53;;;;;;;9.93;2.65;;;;;;;9.37;100.00;100980.75;5069126;28;20111;-65
2023/01/11 11:44:24;;;;;;;11.35;3.35;;;;;;;9.49;100.00;100973.47;5068623;28;20020;-65
2023/01/11 11:47:04;;;;;;;13.70;3.83;;;;;;;9.58;100.00;100979.81;5069168;28;20067;-65
2023/01/11 11:49:34;;;;;;;12.45;2.90;;;;;;;9.70;100.00;100976.81;5069268;28;20061;-65
2023/01/11 11:52:02;;;;;;;15.48;3.70;;;;;;;9.80;100.00;100981.53;5068925;28;20434;-65
2023/01/11 11:54:34;;;;;;;14.80;3.70;;;;;;;9.91;100.00;100975.84;5069165;28;20036;-65
2023/01/11 11:57:14;;;;;;;;;;;;;;;9.97;100.00;100976.97;5069351;28;20024;-65
2023/01/11 11:59:44;;;;;;;15.68;3.92;;;;;;;10.06;100.00;100979.00;5068613;28;19908;-65
2023/01/11 12:02:30;;;;;;;12.65;3.20;;;;;;;10.19;100.00;100989.81;5069019;28;20020;-65
2023/01/11 12:04:58;;;;;;;12.80;2.90;;;;;;;10.35;100.00;100982.56;5068502;28;20039;-65
2023/01/11 12:07:30;;;;;;;12.70;3.58;;;;;;;10.40;100.00;100987.09;5068844;28;20376;-65
2023/01/11 12:10:00;;;;;;;12.02;2.80;;;;;;;10.48;100.00;100979.63;5068413;28;20039;-65
2023/01/11 12:12:26;;;;;;;12.50;2.92;;;;;;;10.58;100.00;100970.44;5067064;28;20071;-65